createdAt,value
2023-01-17T00:00:15.177Z,100134.77
2023-01-17T00:02:44.838Z,100138.50
2023-01-17T00:05:30.758Z,100137.88
2023-01-17T00:08:16.646Z,100139.55
2023-01-17T00:10:43.694Z,100134.61
2023-01-17T00:13:11.053Z,100133.56
2023-01-17T00:15:42.945Z,100131.06
2023-01-17T00:18:10.165Z,100129.40
2023-01-17T00:20:56.269Z,100130.70
2023-01-17T00:23:43.067Z,100131.58
2023-01-17T00:26:16.825Z,100126.67
2023-01-17T00:28:46.075Z,100131.52
2023-01-17T00:31:15.701Z,100128.39
2023-01-17T00:33:47.953Z,100124.45
2023-01-17T00:36:14.787Z,100121.20
2023-01-17T00:38:46.959Z,100119.37
2023-01-17T00:41:14.465Z,100115.83
2023-01-17T00:44:02.873Z,100121.11
2023-01-17T00:46:54.130Z,100118.29
2023-01-17T00:49:50.409Z,100112.62
2023-01-17T00:52:41.427Z,100111.88
2023-01-17T00:55:27.534Z,100107.90
2023-01-17T00:58:13.502Z,100101.89
2023-01-17T01:01:04.660Z,100094.66
2023-01-17T01:03:50.818Z,100092.15
2023-01-17T01:06:36.699Z,100089.13
2023-01-17T01:09:27.813Z,100093.85
2023-01-17T01:12:13.529Z,100085.69
2023-01-17T01:14:59.488Z,100083.77
2023-01-17T01:17:45.381Z,100079.57
2023-01-17T01:20:36.383Z,100072.84
2023-01-17T01:23:23.820Z,100071.23
2023-01-17T01:26:11.980Z,100062.67
2023-01-17T01:28:58.249Z,100063.48
2023-01-17T01:31:49.399Z,100058.85
2023-01-17T01:34:16.752Z,100059.58
2023-01-17T01:36:43.772Z,100055.96
2023-01-17T01:39:10.817Z,100057.36
2023-01-17T01:41:37.851Z,100058.08
2023-01-17T01:44:05.008Z,100056.95
2023-01-17T01:46:43.320Z,100052.34
2023-01-17T01:55:35.803Z,100048.27
2023-01-17T01:58:17.182Z,100054.92
2023-01-17T02:00:49.351Z,100053.80
2023-01-17T02:03:19.374Z,100054.55
2023-01-17T02:05:46.210Z,100047.45
2023-01-17T02:08:16.559Z,100051.15
2023-01-17T02:10:49.519Z,100058.50
2023-01-17T02:13:17.292Z,100056.13
2023-01-17T02:15:53.754Z,100056.89
2023-01-17T02:18:26.967Z,100055.20
2023-01-17T02:21:11.353Z,100052.47
2023-01-17T02:24:02.099Z,100052.91
2023-01-17T02:27:12.810Z,100051.96
2023-01-17T02:30:11.047Z,100051.13
2023-01-17T02:33:16.816Z,100051.83
2023-01-17T02:35:58.491Z,100043.93
2023-01-17T02:38:51.361Z,100041.34
2023-01-17T02:41:41.267Z,100039.76
2023-01-17T02:44:09.097Z,100032.61
2023-01-17T02:46:47.080Z,100029.48
2023-01-17T02:49:15.456Z,100027.37
2023-01-17T02:51:56.757Z,100022.48
2023-01-17T02:54:41.726Z,100021.63
2023-01-17T02:57:32.751Z,100011.27
2023-01-17T03:00:14.933Z,100011.55
2023-01-17T03:02:58.572Z,100008.03
2023-01-17T03:05:37.294Z,100008.90
2023-01-17T03:08:09.359Z,100013.76
2023-01-17T03:10:36.416Z,100014.88
2023-01-17T03:13:08.469Z,100013.53
2023-01-17T03:15:35.453Z,100014.27
2023-01-17T03:18:05.323Z,100014.17
2023-01-17T03:20:33.721Z,100015.02
2023-01-17T03:23:06.099Z,100020.52
2023-01-17T03:25:33.541Z,100013.72
2023-01-17T03:28:00.531Z,100011.98
2023-01-17T03:30:27.684Z,100009.66
2023-01-17T03:32:54.781Z,100012.86
2023-01-17T03:35:21.834Z,100007.20
2023-01-17T03:37:48.878Z,100002.02
2023-01-17T03:40:15.926Z,100005.13
2023-01-17T03:42:43.175Z,100000.59
2023-01-17T03:45:10.837Z,99993.03
2023-01-17T03:47:37.882Z,99991.66
2023-01-17T03:50:05.471Z,99993.98
2023-01-17T03:52:37.916Z,99997.02
2023-01-17T03:55:06.043Z,99992.92
2023-01-17T03:57:33.038Z,99989.92
2023-01-17T04:00:00.104Z,99988.15
2023-01-17T04:02:27.281Z,99986.81
2023-01-17T04:04:54.284Z,99982.52
2023-01-17T04:07:21.331Z,99983.68
2023-01-17T04:09:48.375Z,99974.96
2023-01-17T04:12:15.419Z,99976.50
2023-01-17T04:14:42.468Z,99982.48
2023-01-17T04:17:12.281Z,99973.84
2023-01-17T04:19:39.237Z,99976.13
2023-01-17T04:22:11.287Z,99976.48
2023-01-17T04:24:38.464Z,99968.53
2023-01-17T04:27:05.666Z,99971.12
2023-01-17T04:29:37.961Z,99962.52
2023-01-17T04:32:05.316Z,99959.30
2023-01-17T04:34:32.261Z,99963.27
2023-01-17T04:36:59.416Z,99955.70
2023-01-17T04:39:26.456Z,99958.09
2023-01-17T04:41:53.429Z,99960.98
2023-01-17T04:44:25.579Z,99960.77
2023-01-17T04:46:52.617Z,99965.14
2023-01-17T04:49:19.570Z,99971.20
2023-01-17T04:51:46.672Z,99970.94
2023-01-17T04:54:13.761Z,99967.57
2023-01-17T04:56:40.804Z,99967.48
2023-01-17T04:59:07.967Z,99966.98
2023-01-17T05:01:35.521Z,99964.60
2023-01-17T05:04:02.870Z,99958.90
2023-01-17T05:06:29.922Z,99954.20
2023-01-17T05:08:56.962Z,99950.27
2023-01-17T05:11:24.015Z,99951.81
2023-01-17T05:13:51.059Z,99953.68
2023-01-17T05:16:19.661Z,99954.52
2023-01-17T05:18:46.686Z,99951.33
2023-01-17T05:21:13.661Z,99948.09
2023-01-17T05:23:42.830Z,99943.42
2023-01-17T05:26:09.916Z,99935.64
2023-01-17T05:28:36.927Z,99930.65
2023-01-17T05:31:04.189Z,99936.45
2023-01-17T05:33:31.329Z,99942.87
2023-01-17T05:35:58.373Z,99941.93
2023-01-17T05:38:25.429Z,99943.52
2023-01-17T05:40:52.757Z,99952.58
2023-01-17T05:43:20.329Z,99948.09
2023-01-17T05:45:50.248Z,99949.64
2023-01-17T05:48:17.396Z,99944.20
2023-01-17T05:50:44.442Z,99932.83
2023-01-17T05:53:13.229Z,99929.05
2023-01-17T05:55:40.691Z,99929.13
2023-01-17T05:58:09.038Z,99927.95
2023-01-17T06:00:37.580Z,99928.13
2023-01-17T06:03:04.803Z,99932.13
2023-01-17T06:05:31.864Z,99942.08
2023-01-17T06:07:59.395Z,99935.05
2023-01-17T06:10:26.502Z,99931.30
2023-01-17T06:13:10.432Z,99923.65
2023-01-17T06:15:37.700Z,99919.59
2023-01-17T06:18:08.885Z,99929.86
2023-01-17T06:20:36.943Z,99933.73
2023-01-17T06:23:11.799Z,99932.15
2023-01-17T06:25:48.167Z,99922.56
2023-01-17T06:28:16.041Z,99918.23
2023-01-17T06:30:44.064Z,99910.42
2023-01-17T06:33:11.361Z,99910.58
2023-01-17T06:35:44.427Z,99916.55
2023-01-17T06:38:11.390Z,99911.69
2023-01-17T06:40:38.321Z,99919.69
2023-01-17T06:43:05.549Z,99912.94
2023-01-17T06:45:34.034Z,99907.23
2023-01-17T06:48:03.874Z,99907.08
2023-01-17T06:50:31.313Z,99898.24
2023-01-17T06:53:00.404Z,99894.98
2023-01-17T06:55:36.414Z,99894.33
2023-01-17T06:58:03.538Z,99881.11
2023-01-17T07:00:31.495Z,99883.70
2023-01-17T07:02:58.644Z,99890.22
2023-01-17T07:05:25.745Z,99887.58
2023-01-17T07:07:53.727Z,99890.77
2023-01-17T07:10:20.906Z,99891.84
2023-01-17T07:12:47.998Z,99893.89
2023-01-17T07:15:15.120Z,99889.10
2023-01-17T07:17:42.178Z,99887.25
2023-01-17T07:20:10.044Z,99884.66
2023-01-17T07:22:37.955Z,99889.45
2023-01-17T07:25:05.358Z,99891.67
2023-01-17T07:27:33.769Z,99903.11
2023-01-17T07:30:00.815Z,99897.48
2023-01-17T07:32:28.543Z,99891.27
2023-01-17T07:34:57.743Z,99893.42
2023-01-17T07:37:26.500Z,99896.21
2023-01-17T07:39:54.696Z,99895.67
2023-01-17T07:42:24.077Z,99896.86
2023-01-17T07:44:51.433Z,99893.59
2023-01-17T07:47:18.456Z,99894.03
2023-01-17T07:49:45.523Z,99896.83
2023-01-17T07:52:12.462Z,99898.30
2023-01-17T07:54:39.444Z,99893.98
2023-01-17T07:57:06.590Z,99895.91
2023-01-17T07:59:34.762Z,99897.08
2023-01-17T08:02:02.045Z,99890.39
2023-01-17T08:04:34.842Z,99894.48
2023-01-17T08:07:01.955Z,99900.70
2023-01-17T08:09:29.063Z,99893.17
2023-01-17T08:11:56.065Z,99901.55
2023-01-17T08:14:24.114Z,99900.72
2023-01-17T08:16:51.185Z,99899.52
2023-01-17T08:19:18.266Z,99901.20
2023-01-17T08:21:45.584Z,99896.88
2023-01-17T08:24:14.019Z,99895.23
2023-01-17T08:26:41.120Z,99887.91
2023-01-17T08:29:08.140Z,99903.55
2023-01-17T08:31:35.225Z,99898.84
2023-01-17T08:34:02.352Z,99903.70
2023-01-17T08:36:31.422Z,99913.56
2023-01-17T08:38:58.632Z,99919.87
2023-01-17T08:41:28.088Z,99915.78
2023-01-17T08:44:00.299Z,99915.36
2023-01-17T08:46:27.497Z,99911.27
2023-01-17T08:48:56.077Z,99902.44
2023-01-17T08:51:26.462Z,99900.35
2023-01-17T08:53:53.907Z,99897.39
2023-01-17T08:56:20.952Z,99892.45
2023-01-17T08:58:48.051Z,99894.45
2023-01-17T09:01:15.140Z,99906.52
2023-01-17T09:03:42.638Z,99918.20
2023-01-17T09:06:11.279Z,99913.65
2023-01-17T09:08:38.484Z,99906.10
2023-01-17T09:11:09.610Z,99894.98
2023-01-17T09:13:36.839Z,99893.50
2023-01-17T09:16:04.054Z,99889.95
2023-01-17T09:18:31.597Z,99887.19
2023-01-17T09:20:59.540Z,99886.36
2023-01-17T09:23:27.656Z,99884.20
2023-01-17T09:25:58.973Z,99885.52
2023-01-17T09:28:26.790Z,99875.92
2023-01-17T09:30:54.012Z,99868.79
2023-01-17T09:33:21.149Z,99863.70
2023-01-17T09:35:48.102Z,99864.29
2023-01-17T09:38:15.186Z,99860.39
2023-01-17T09:40:46.383Z,99861.30
2023-01-17T09:43:31.801Z,99857.11
2023-01-17T09:45:58.924Z,99853.36
2023-01-17T09:48:31.922Z,99849.81
2023-01-17T09:51:12.276Z,99843.77
2023-01-17T09:53:40.246Z,99831.27
2023-01-17T09:56:16.136Z,99836.06
2023-01-17T09:59:18.806Z,99834.47
2023-01-17T10:01:55.796Z,99837.48
2023-01-17T10:04:41.730Z,99837.23
2023-01-17T10:07:25.616Z,99835.35
2023-01-17T10:10:02.267Z,99837.43
2023-01-17T10:12:44.670Z,99833.84
2023-01-17T10:15:39.154Z,99834.12
2023-01-17T10:18:29.835Z,99832.98
2023-01-17T10:21:11.211Z,99833.89
2023-01-17T10:24:00.021Z,99826.20
2023-01-17T10:26:27.394Z,99833.63
2023-01-17T10:28:57.533Z,99837.70
2023-01-17T10:31:30.158Z,99831.90
2023-01-17T10:34:00.799Z,99827.08
2023-01-17T10:36:30.231Z,99825.38
2023-01-17T10:38:59.763Z,99816.02
2023-01-17T10:41:30.208Z,99810.92
2023-01-17T10:43:57.232Z,99811.78
2023-01-17T10:46:34.560Z,99804.75
2023-01-17T10:49:01.728Z,99796.42
2023-01-17T10:51:35.272Z,99799.39
2023-01-17T10:54:26.421Z,99806.60
2023-01-17T10:56:53.551Z,99809.06
2023-01-17T10:59:42.462Z,99805.83
2023-01-17T11:02:19.042Z,99803.42
2023-01-17T11:04:46.023Z,99802.70
2023-01-17T11:07:13.335Z,99795.01
2023-01-17T11:09:44.934Z,99791.27
2023-01-17T11:12:30.451Z,99786.91
2023-01-17T11:15:08.760Z,99781.13
2023-01-17T11:17:42.244Z,99780.38
2023-01-17T11:20:12.683Z,99771.14
2023-01-17T11:22:39.688Z,99766.02
2023-01-17T11:25:07.408Z,99752.79
2023-01-17T11:27:35.548Z,99749.53
2023-01-17T11:30:03.807Z,99747.59
2023-01-17T11:32:32.722Z,99747.09
2023-01-17T11:35:16.442Z,99738.23
2023-01-17T11:38:13.849Z,99743.12
2023-01-17T11:40:42.331Z,99748.04
2023-01-17T11:43:12.901Z,99751.75
2023-01-17T11:45:40.577Z,99751.45
2023-01-17T11:48:13.151Z,99754.86
2023-01-17T11:50:59.666Z,99747.40
2023-01-17T11:53:38.859Z,99743.78
2023-01-17T11:56:10.482Z,99741.58
2023-01-17T11:58:40.166Z,99749.05
2023-01-17T12:01:32.151Z,99745.00
2023-01-17T12:04:17.790Z,99748.75
2023-01-17T12:06:57.755Z,99745.27
2023-01-17T12:09:59.922Z,99741.34
2023-01-17T12:12:57.967Z,99734.27
2023-01-17T12:15:52.169Z,99732.27
2023-01-17T12:18:19.339Z,99737.95
2023-01-17T12:21:08.269Z,99732.79
2023-01-17T12:23:51.149Z,99730.27
2023-01-17T12:26:33.467Z,99732.58
2023-01-17T12:29:29.380Z,99735.91
2023-01-17T12:32:15.301Z,99739.73
2023-01-17T12:34:47.241Z,99738.63
2023-01-17T12:37:24.615Z,99732.42
2023-01-17T12:40:20.968Z,99735.89
2023-01-17T12:43:01.625Z,99730.16
2023-01-17T12:45:45.702Z,99728.41
2023-01-17T12:48:19.971Z,99713.53
2023-01-17T12:50:55.248Z,99708.24
2023-01-17T12:53:45.189Z,99704.03
2023-01-17T12:56:24.462Z,99710.15
2023-01-17T12:58:56.363Z,99716.80
2023-01-17T13:01:40.984Z,99720.59
2023-01-17T13:04:18.031Z,99707.51
2023-01-17T13:06:46.816Z,99703.29
2023-01-17T13:09:15.128Z,99703.17
2023-01-17T13:11:46.710Z,99712.36
2023-01-17T13:14:13.691Z,99722.77
2023-01-17T13:16:44.944Z,99730.25
2023-01-17T13:19:24.425Z,99734.05
2023-01-17T13:21:51.443Z,99731.23
2023-01-17T13:24:42.485Z,99729.41
2023-01-17T13:27:25.256Z,99727.30
2023-01-17T13:29:55.215Z,99735.46
2023-01-17T13:32:31.270Z,99739.89
2023-01-17T13:35:33.751Z,99731.56
2023-01-17T13:38:43.186Z,99717.56
2023-01-17T13:41:34.956Z,99717.68
2023-01-17T13:44:20.700Z,99716.29
2023-01-17T13:47:04.431Z,99724.41
2023-01-17T13:49:34.299Z,99729.07
2023-01-17T13:52:23.360Z,99726.77
2023-01-17T13:54:51.143Z,99742.15
2023-01-17T13:57:29.562Z,99744.00
2023-01-17T13:59:57.723Z,99744.41
2023-01-17T14:02:33.672Z,99741.77
2023-01-17T14:05:15.411Z,99742.02
2023-01-17T14:07:52.425Z,99746.44
2023-01-17T14:10:39.398Z,99731.74
2023-01-17T14:13:25.039Z,99726.71
2023-01-17T14:15:52.029Z,99730.61
2023-01-17T14:18:45.321Z,99730.19
2023-01-17T14:21:23.584Z,99734.98
2023-01-17T14:24:05.810Z,99730.88
2023-01-17T14:26:53.520Z,99731.70
2023-01-17T14:29:42.822Z,99728.63
2023-01-17T14:32:14.975Z,99726.69
2023-01-17T14:34:44.138Z,99731.73
2023-01-17T14:37:20.794Z,99731.63
2023-01-17T14:39:49.171Z,99729.92
2023-01-17T14:42:18.411Z,99722.19
2023-01-17T14:44:49.972Z,99718.41
2023-01-17T14:47:17.014Z,99725.41
2023-01-17T14:49:44.355Z,99732.00
2023-01-17T14:52:15.633Z,99731.88
2023-01-17T14:54:51.663Z,99733.56
2023-01-17T14:57:28.188Z,99732.61
2023-01-17T15:00:13.890Z,99724.63
2023-01-17T15:02:42.767Z,99714.79
2023-01-17T15:05:15.918Z,99728.05
2023-01-17T15:07:48.899Z,99716.14
2023-01-17T15:10:17.654Z,99725.98
2023-01-17T15:12:47.120Z,99724.89
2023-01-17T15:15:37.467Z,99726.23
2023-01-17T15:18:13.588Z,99719.85
2023-01-17T15:21:04.822Z,99728.00
2023-01-17T15:23:47.111Z,99729.25
2023-01-17T15:26:16.427Z,99722.68
2023-01-17T15:28:45.019Z,99732.84
2023-01-17T15:31:24.180Z,99740.62
2023-01-17T15:33:55.985Z,99743.11
2023-01-17T15:36:32.765Z,99737.00
2023-01-17T15:39:07.568Z,99736.40
2023-01-17T15:41:35.693Z,99733.37
2023-01-17T15:44:03.093Z,99739.97
2023-01-17T15:46:42.137Z,99729.06
2023-01-17T15:49:19.836Z,99724.11
2023-01-17T15:52:16.002Z,99733.96
2023-01-17T15:54:50.643Z,99743.28
2023-01-17T15:57:27.816Z,99736.38
2023-01-17T16:00:01.843Z,99729.52
2023-01-17T16:02:36.172Z,99730.40
2023-01-17T16:05:23.510Z,99741.69
2023-01-17T16:08:03.452Z,99740.23
2023-01-17T16:10:35.805Z,99741.95
2023-01-17T16:13:03.654Z,99734.71
2023-01-17T16:15:30.875Z,99740.64
2023-01-17T16:17:59.534Z,99726.63
2023-01-17T16:20:38.011Z,99732.17
2023-01-17T16:23:05.046Z,99727.04
2023-01-17T16:25:34.847Z,99722.04
2023-01-17T16:28:02.466Z,99721.56
2023-01-17T16:30:29.895Z,99717.00
2023-01-17T16:32:59.685Z,99711.02
2023-01-17T16:35:28.009Z,99715.09
2023-01-17T16:37:57.101Z,99722.95
2023-01-17T16:40:25.681Z,99712.25
2023-01-17T16:42:52.718Z,99717.71
2023-01-17T16:45:19.799Z,99718.70
2023-01-17T16:47:47.768Z,99720.84
2023-01-17T16:50:21.793Z,99725.17
2023-01-17T16:52:52.565Z,99719.73
2023-01-17T16:55:27.217Z,99730.40
2023-01-17T16:57:56.508Z,99726.17
2023-01-17T17:00:23.616Z,99722.73
2023-01-17T17:02:54.010Z,99714.58
2023-01-17T17:05:21.112Z,99723.88
2023-01-17T17:07:50.861Z,99728.04
2023-01-17T17:10:25.310Z,99729.30
2023-01-17T17:12:52.344Z,99732.59
2023-01-17T17:15:19.331Z,99722.38
2023-01-17T17:17:46.373Z,99724.59
2023-01-17T17:20:14.375Z,99721.33
2023-01-17T17:22:43.756Z,99718.20
2023-01-17T17:25:12.094Z,99723.69
2023-01-17T17:27:39.123Z,99726.10
2023-01-17T17:30:06.876Z,99725.25
2023-01-17T17:32:34.012Z,99722.55
2023-01-17T17:35:00.969Z,99734.77
2023-01-17T17:37:29.210Z,99736.94
2023-01-17T17:39:57.138Z,99731.85
2023-01-17T17:42:24.233Z,99734.68
2023-01-17T17:44:51.193Z,99731.09
2023-01-17T17:47:18.202Z,99725.55
2023-01-17T17:49:45.295Z,99721.05
2023-01-17T17:52:12.248Z,99717.41
2023-01-17T17:54:39.182Z,99724.02
2023-01-17T17:57:06.694Z,99723.34
2023-01-17T17:59:33.711Z,99719.27
2023-01-17T18:02:00.925Z,99722.05
2023-01-17T18:04:28.367Z,99723.45
2023-01-17T18:06:57.457Z,99716.40
2023-01-17T18:09:24.528Z,99714.92
2023-01-17T18:11:56.632Z,99711.32
2023-01-17T18:14:24.669Z,99712.79
2023-01-17T18:16:51.694Z,99717.28
2023-01-17T18:19:20.677Z,99717.86
2023-01-17T18:21:53.041Z,99722.93
2023-01-17T18:24:21.935Z,99717.50
2023-01-17T18:26:58.727Z,99717.65
2023-01-17T18:29:26.714Z,99710.63
2023-01-17T18:31:53.732Z,99719.91
2023-01-17T18:34:24.260Z,99714.03
2023-01-17T18:36:56.789Z,99713.00
2023-01-17T18:39:28.925Z,99719.04
2023-01-17T18:41:55.970Z,99717.04
2023-01-17T18:44:23.168Z,99719.65
2023-01-17T18:46:51.140Z,99718.28
2023-01-17T18:49:19.500Z,99722.77
2023-01-17T18:51:55.581Z,99725.01
2023-01-17T18:54:32.081Z,99725.53
2023-01-17T18:56:59.168Z,99727.25
2023-01-17T18:59:26.156Z,99728.04
2023-01-17T19:01:53.313Z,99727.95
2023-01-17T19:04:25.738Z,99729.89
2023-01-17T19:06:53.502Z,99723.27
2023-01-17T19:09:20.602Z,99711.83
2023-01-17T19:11:47.727Z,99708.70
2023-01-17T19:14:15.912Z,99715.27
2023-01-17T19:16:43.183Z,99719.77
2023-01-17T19:19:13.046Z,99731.63
2023-01-17T19:21:40.070Z,99733.34
2023-01-17T19:24:07.327Z,99735.39
2023-01-17T19:26:34.361Z,99735.73
2023-01-17T19:29:03.916Z,99727.34
2023-01-17T19:31:31.705Z,99719.08
2023-01-17T19:33:59.522Z,99723.67
2023-01-17T19:36:28.896Z,99717.85
2023-01-17T19:39:04.451Z,99722.20
2023-01-17T19:41:32.572Z,99715.95
2023-01-17T19:44:05.001Z,99710.14
2023-01-17T19:46:32.629Z,99714.95
2023-01-17T19:48:59.995Z,99715.94
2023-01-17T19:51:27.373Z,99714.38
2023-01-17T19:54:01.610Z,99720.38
2023-01-17T19:56:28.871Z,99717.48
2023-01-17T19:59:01.390Z,99707.44
2023-01-17T20:01:31.287Z,99712.98
2023-01-17T20:03:58.693Z,99709.98
2023-01-17T20:06:31.077Z,99725.89
2023-01-17T20:08:58.349Z,99728.09
2023-01-17T20:11:25.811Z,99730.67
2023-01-17T20:13:57.300Z,99728.05
2023-01-17T20:16:30.270Z,99726.81
2023-01-17T20:18:58.582Z,99731.63
2023-01-17T20:21:26.604Z,99729.52
2023-01-17T20:23:54.668Z,99732.64
2023-01-17T20:26:31.132Z,99743.17
2023-01-17T20:28:58.461Z,99742.73
2023-01-17T20:31:25.482Z,99746.77
2023-01-17T20:33:54.257Z,99749.55
2023-01-17T20:36:23.087Z,99745.24
2023-01-17T20:38:50.217Z,99746.13
2023-01-17T20:41:31.640Z,99749.95
2023-01-17T20:44:00.492Z,99756.74
2023-01-17T20:46:35.773Z,99762.50
2023-01-17T20:49:05.709Z,99761.85
2023-01-17T20:51:43.717Z,99766.01
2023-01-17T20:54:19.035Z,99760.17
2023-01-17T20:56:47.868Z,99763.77
2023-01-17T20:59:19.893Z,99760.30
2023-01-17T21:01:47.204Z,99761.45
2023-01-17T21:04:15.053Z,99758.17
2023-01-17T21:06:43.158Z,99751.70
2023-01-17T21:09:12.358Z,99743.13
2023-01-17T21:11:39.393Z,99736.48
2023-01-17T21:14:06.617Z,99739.58
2023-01-17T21:16:34.374Z,99740.39
2023-01-17T21:19:01.586Z,99740.98
2023-01-17T21:21:29.371Z,99742.97
2023-01-17T21:24:00.215Z,99742.83
2023-01-17T21:26:33.149Z,99745.89
2023-01-17T21:29:03.861Z,99744.70
2023-01-17T21:31:33.782Z,99742.28
2023-01-17T21:34:05.129Z,99740.55
2023-01-17T21:36:39.050Z,99741.00
2023-01-17T21:39:07.700Z,99737.91
2023-01-17T21:41:39.419Z,99740.08
2023-01-17T21:44:08.789Z,99738.17
2023-01-17T21:46:41.147Z,99735.80
2023-01-17T21:49:10.833Z,99738.27
2023-01-17T21:51:59.554Z,99738.45
2023-01-17T21:54:46.279Z,99735.52
2023-01-17T21:57:33.547Z,99739.30
2023-01-17T22:00:00.678Z,99744.27
2023-01-17T22:02:27.679Z,99749.32
2023-01-17T22:04:59.876Z,99747.95
2023-01-17T22:07:27.262Z,99751.95
2023-01-17T22:09:54.814Z,99761.48
2023-01-17T22:12:26.928Z,99761.08
2023-01-17T22:14:53.884Z,99765.40
2023-01-17T22:17:25.962Z,99765.70
2023-01-17T22:19:58.001Z,99767.61
2023-01-17T22:22:24.901Z,99765.02
2023-01-17T22:24:52.058Z,99765.37
2023-01-17T22:27:24.311Z,99767.27
2023-01-17T22:29:51.347Z,99763.16
2023-01-17T22:32:23.410Z,99751.99
2023-01-17T22:34:55.503Z,99758.41
2023-01-17T22:37:22.433Z,99758.56
2023-01-17T22:39:49.352Z,99751.60
2023-01-17T22:42:21.910Z,99757.67
2023-01-17T22:44:48.935Z,99756.48
2023-01-17T22:47:15.963Z,99752.11
2023-01-17T22:49:48.230Z,99747.24
2023-01-17T22:52:15.279Z,99754.66
2023-01-17T22:54:47.455Z,99746.83
2023-01-17T22:57:19.717Z,99748.38
2023-01-17T22:59:51.892Z,99748.90
2023-01-17T23:02:18.941Z,99742.23
2023-01-17T23:04:52.161Z,99740.02
2023-01-17T23:07:27.260Z,99735.56
2023-01-17T23:09:54.285Z,99733.55
2023-01-17T23:12:21.245Z,99734.52
2023-01-17T23:15:12.176Z,99734.52
2023-01-17T23:18:02.963Z,99738.15
2023-01-17T23:20:30.079Z,99739.49
2023-01-17T23:22:57.273Z,99741.39
2023-01-17T23:25:24.319Z,99741.55
2023-01-17T23:28:10.265Z,99730.05
2023-01-17T23:30:41.084Z,99734.34
2023-01-17T23:33:12.411Z,99732.44
2023-01-17T23:35:42.144Z,99735.56
2023-01-17T23:38:34.207Z,99741.37
2023-01-17T23:41:24.239Z,99743.11
2023-01-17T23:44:00.995Z,99740.58
2023-01-17T23:46:30.276Z,99744.80
2023-01-17T23:48:57.486Z,99750.58
2023-01-17T23:51:24.539Z,99752.58
2023-01-17T23:53:57.468Z,99756.71
2023-01-17T23:56:25.032Z,99753.60
2023-01-17T23:58:52.000Z,99753.31
